Time;durP1;ratioP1;P1;durP2;ratioP2;P2;SDS_P1;SDS_P2;PMS_P1;PMS_P2;Temp;Humidity;BMP_temperature;BMP_pressure;BME280_temperature;BME280_humidity;BME280_pressure;Samples;Min_cycle;Max_cycle;Signal;HPM_P1;HPM_P2
2023/07/17 00:01:19;;;;;;;7.40;6.70;;;27.10;99.90;;;;;;5001443;28;20033;-77
2023/07/17 00:03:45;;;;;;;8.57;6.63;;;27.10;99.90;;;;;;5002954;28;20602;-77
2023/07/17 00:06:11;;;;;;;9.95;6.40;;;27.10;99.90;;;;;;5000341;28;20486;-77
2023/07/17 00:08:36;;;;;;;12.60;5.95;;;27.10;99.90;;;;;;5003350;28;20022;-77
2023/07/17 00:11:02;;;;;;;6.38;5.78;;;27.00;99.90;;;;;;5000758;28;20064;-77
2023/07/17 00:13:28;;;;;;;11.65;6.53;;;27.00;99.90;;;;;;5004133;28;20056;-77
2023/07/17 00:15:54;;;;;;;8.23;6.55;;;27.00;99.90;;;;;;4999560;28;20113;-76
2023/07/17 00:18:23;;;;;;;10.75;6.85;;;26.90;99.90;;;;;;5004143;28;20026;-76
2023/07/17 00:20:51;;;;;;;10.55;6.65;;;26.90;99.90;;;;;;5002666;28;20139;-77
2023/07/17 00:23:20;;;;;;;8.48;7.20;;;26.90;99.90;;;;;;5001173;28;20027;-76
2023/07/17 00:25:45;;;;;;;9.05;6.65;;;26.90;99.90;;;;;;5001015;28;20414;-76
2023/07/17 00:28:11;;;;;;;7.85;6.68;;;26.80;99.90;;;;;;5003417;28;20037;-77
2023/07/17 00:30:38;;;;;;;11.60;6.72;;;26.80;99.90;;;;;;5007258;28;20034;-77
2023/07/17 00:33:04;;;;;;;14.80;7.47;;;26.70;99.90;;;;;;5000509;28;20486;-77
2023/07/17 00:35:29;;;;;;;7.97;6.82;;;26.70;99.90;;;;;;5001910;28;20033;-77
2023/07/17 00:37:55;;;;;;;15.85;8.00;;;26.70;99.90;;;;;;5001053;28;20018;-76
2023/07/17 00:40:21;;;;;;;12.68;6.93;;;26.60;99.90;;;;;;5002088;28;20477;-77
2023/07/17 00:42:47;;;;;;;11.85;7.55;;;26.60;99.90;;;;;;5001873;28;20018;-76
2023/07/17 00:45:12;;;;;;;8.43;6.90;;;26.50;99.90;;;;;;5001599;28;20157;-77
2023/07/17 00:47:38;;;;;;;10.98;6.78;;;26.50;99.90;;;;;;5002054;28;20084;-76
2023/07/17 00:50:05;;;;;;;8.32;7.53;;;26.50;99.90;;;;;;5003060;28;20041;-77
2023/07/17 00:52:30;;;;;;;7.97;7.03;;;26.50;99.90;;;;;;5003129;28;20026;-76
2023/07/17 00:54:57;;;;;;;7.10;6.10;;;26.50;99.90;;;;;;4999856;28;20367;-77
2023/07/17 00:57:25;;;;;;;10.88;7.18;;;26.50;99.90;;;;;;5003248;28;20050;-77
2023/07/17 00:59:51;;;;;;;7.85;6.57;;;26.50;99.90;;;;;;5000579;28;20057;-77
2023/07/17 01:02:18;;;;;;;11.63;7.93;;;26.50;99.90;;;;;;5001994;28;20065;-76
2023/07/17 01:04:45;;;;;;;10.90;6.72;;;26.50;99.90;;;;;;5009205;28;20520;-77
2023/07/17 01:07:15;;;;;;;9.48;7.07;;;26.50;99.90;;;;;;5000736;28;20026;-77
2023/07/17 01:09:41;;;;;;;10.43;7.22;;;26.50;99.90;;;;;;5003151;28;20049;-77
2023/07/17 01:12:08;;;;;;;14.75;8.52;;;26.50;99.90;;;;;;4999819;28;20022;-77
2023/07/17 01:14:33;;;;;;;16.50;7.32;;;26.50;99.90;;;;;;5001718;28;20021;-77
2023/07/17 01:16:59;;;;;;;10.05;7.70;;;26.50;99.90;;;;;;5000608;28;20084;-77
2023/07/17 01:19:25;;;;;;;11.00;7.22;;;26.50;99.90;;;;;;5000253;28;20099;-76
2023/07/17 01:21:57;;;;;;;10.32;7.57;;;26.50;99.90;;;;;;5003261;28;20426;-76
2023/07/17 01:24:23;;;;;;;9.80;7.13;;;26.40;99.90;;;;;;5000332;28;20113;-77
2023/07/17 01:26:49;;;;;;;13.70;7.35;;;26.50;99.90;;;;;;5002780;28;20120;-77
2023/07/17 01:29:15;;;;;;;8.80;7.90;;;26.40;99.90;;;;;;4999735;28;20053;-77
2023/07/17 01:31:42;;;;;;;12.90;7.72;;;26.40;99.90;;;;;;4999764;28;20042;-77
2023/07/17 01:34:08;;;;;;;10.93;7.78;;;26.50;99.90;;;;;;5002676;28;20018;-77
2023/07/17 01:36:34;;;;;;;12.55;8.13;;;26.50;99.90;;;;;;5000646;28;20022;-77
2023/07/17 01:39:00;;;;;;;8.63;7.72;;;26.50;99.90;;;;;;5008005;28;20045;-77
2023/07/17 01:41:25;;;;;;;10.05;7.57;;;26.50;99.90;;;;;;5001277;28;20084;-77
2023/07/17 01:43:51;;;;;;;13.68;7.20;;;26.40;99.90;;;;;;5000935;28;20022;-76
2023/07/17 01:46:17;;;;;;;13.32;7.47;;;26.40;99.90;;;;;;5001992;28;20038;-76
2023/07/17 01:48:44;;;;;;;11.80;7.55;;;26.40;99.90;;;;;;5000743;28;20023;-77
2023/07/17 01:51:09;;;;;;;8.38;7.50;;;26.30;99.90;;;;;;5002889;28;20414;-77
2023/07/17 01:53:36;;;;;;;11.80;7.30;;;26.30;99.90;;;;;;5006262;28;20022;-77
2023/07/17 01:56:02;;;;;;;11.30;7.53;;;26.40;99.90;;;;;;5003289;28;20018;-77
2023/07/17 01:58:28;;;;;;;8.70;7.72;;;26.40;99.90;;;;;;5003093;28;20019;-77
2023/07/17 02:00:55;;;;;;;9.25;7.20;;;26.40;99.90;;;;;;5005381;28;20046;-76
2023/07/17 02:03:21;;;;;;;15.75;7.65;;;26.30;99.90;;;;;;5003317;28;20034;-77
2023/07/17 02:05:46;;;;;;;13.10;7.80;;;26.30;99.90;;;;;;5004191;28;20033;-76
2023/07/17 02:08:12;;;;;;;9.70;7.40;;;26.30;99.90;;;;;;5005147;28;20102;-76
2023/07/17 02:10:47;;;;;;;14.52;8.23;;;26.30;99.90;;;;;;5010092;28;20030;-76
2023/07/17 02:13:14;;;;;;;11.10;8.10;;;26.30;99.90;;;;;;5002053;28;20018;-77
2023/07/17 02:15:39;;;;;;;11.43;8.32;;;26.30;99.90;;;;;;5005425;28;20026;-77
2023/07/17 02:18:06;;;;;;;9.52;7.60;;;26.20;99.90;;;;;;5004995;28;20057;-77
2023/07/17 02:20:32;;;;;;;11.85;8.27;;;26.20;99.90;;;;;;5006411;28;20030;-77
2023/07/17 02:22:58;;;;;;;14.23;8.90;;;26.20;99.90;;;;;;5003739;28;20045;-76
2023/07/17 02:25:24;;;;;;;8.55;7.72;;;26.10;99.90;;;;;;5003977;28;20037;-77
2023/07/17 02:27:49;;;;;;;9.85;7.63;;;26.10;99.90;;;;;;5003139;28;20437;-76
2023/07/17 02:30:15;;;;;;;12.25;8.30;;;26.10;99.90;;;;;;5005721;28;20548;-77
2023/07/17 02:32:41;;;;;;;13.23;8.85;;;26.00;99.90;;;;;;5000955;28;20430;-76
2023/07/17 02:35:07;;;;;;;10.00;8.48;;;26.00;99.90;;;;;;5005800;28;20105;-77
2023/07/17 02:37:32;;;;;;;10.55;8.02;;;26.00;99.90;;;;;;5001483;28;20015;-77
2023/07/17 02:39:58;;;;;;;13.07;8.15;;;26.00;99.90;;;;;;5000790;28;20053;-76
2023/07/17 02:42:24;;;;;;;13.23;7.70;;;26.00;99.90;;;;;;5008304;28;20114;-77
2023/07/17 02:44:50;;;;;;;11.25;8.52;;;26.00;99.90;;;;;;5010532;28;20072;-77
2023/07/17 02:47:16;;;;;;;10.80;8.80;;;26.00;99.90;;;;;;5004121;28;20105;-77
2023/07/17 02:49:42;;;;;;;10.45;7.95;;;26.00;99.90;;;;;;5007167;28;20034;-77
2023/07/17 02:52:08;;;;;;;11.02;8.35;;;25.90;99.90;;;;;;5002866;28;20023;-76
2023/07/17 02:54:37;;;;;;;12.60;8.02;;;26.00;99.90;;;;;;5003976;28;20026;-77
2023/07/17 02:57:06;;;;;;;13.35;8.45;;;26.00;99.90;;;;;;5002244;28;20022;-77
2023/07/17 02:59:32;;;;;;;13.13;8.45;;;26.00;99.90;;;;;;5004319;28;20100;-76
2023/07/17 03:01:58;;;;;;;8.32;7.18;;;26.00;99.90;;;;;;5003241;28;20429;-76
2023/07/17 03:04:25;;;;;;;16.23;8.60;;;26.00;99.90;;;;;;5005522;28;20067;-76
2023/07/17 03:06:50;;;;;;;10.20;8.98;;;26.00;99.90;;;;;;5003043;28;20021;-76
2023/07/17 03:09:16;;;;;;;11.43;8.55;;;26.00;99.90;;;;;;5004314;28;20029;-77
2023/07/17 03:11:42;;;;;;;13.48;8.35;;;25.90;99.90;;;;;;5009014;28;20041;-77
2023/07/17 03:14:08;;;;;;;14.25;8.68;;;25.90;99.90;;;;;;5001816;28;20049;-77
2023/07/17 03:16:33;;;;;;;13.45;8.45;;;25.90;99.90;;;;;;5005143;28;20025;-77
2023/07/17 03:19:00;;;;;;;10.90;8.25;;;25.90;99.90;;;;;;5007572;28;20042;-76
2023/07/17 03:21:26;;;;;;;12.13;8.70;;;25.90;99.90;;;;;;5005064;28;20034;-77
2023/07/17 03:23:52;;;;;;;11.70;8.63;;;25.80;99.90;;;;;;5003753;28;20393;-77
2023/07/17 03:26:18;;;;;;;12.68;8.25;;;25.80;99.90;;;;;;5010372;28;20030;-77
2023/07/17 03:28:44;;;;;;;13.27;8.98;;;25.70;99.90;;;;;;5002857;28;20029;-77
2023/07/17 03:31:09;;;;;;;13.50;9.75;;;25.80;99.90;;;;;;5011017;28;20018;-76
2023/07/17 03:33:35;;;;;;;11.95;8.48;;;25.80;99.90;;;;;;5002186;28;20539;-77
2023/07/17 03:36:04;;;;;;;14.15;8.90;;;25.80;99.90;;;;;;5004410;28;20490;-76
2023/07/17 03:38:29;;;;;;;9.90;8.55;;;25.80;99.90;;;;;;5008330;28;20027;-76
2023/07/17 03:40:56;;;;;;;13.30;9.05;;;25.80;99.90;;;;;;5010956;28;20033;-77
2023/07/17 03:43:22;;;;;;;9.85;8.63;;;25.80;99.90;;;;;;5001030;28;20026;-76
2023/07/17 03:45:51;;;;;;;11.75;8.20;;;25.80;99.90;;;;;;5002189;28;20069;-77
2023/07/17 03:48:17;;;;;;;10.05;8.35;;;25.80;99.90;;;;;;5004886;28;20029;-77
2023/07/17 03:50:43;;;;;;;10.60;8.70;;;25.80;99.90;;;;;;5004745;28;20037;-77
2023/07/17 03:53:08;;;;;;;12.43;8.77;;;25.80;99.90;;;;;;5001621;28;20023;-77
2023/07/17 03:55:35;;;;;;;12.85;8.88;;;25.80;99.90;;;;;;5004050;28;20425;-77
2023/07/17 03:58:01;;;;;;;11.50;8.93;;;25.90;99.90;;;;;;5007957;28;20023;-77
2023/07/17 04:00:27;;;;;;;12.30;8.52;;;25.80;99.90;;;;;;5004052;28;20045;-77
2023/07/17 04:02:52;;;;;;;10.00;8.93;;;25.80;99.90;;;;;;4999505;28;20030;-77
2023/07/17 04:05:18;;;;;;;11.43;9.38;;;25.80;99.90;;;;;;5003577;28;20054;-76
2023/07/17 04:07:44;;;;;;;10.50;8.68;;;25.80;99.90;;;;;;4999042;28;20026;-77
2023/07/17 04:10:09;;;;;;;13.40;8.98;;;25.80;99.90;;;;;;5000947;28;20030;-77
2023/07/17 04:12:35;;;;;;;12.13;8.60;;;25.80;99.90;;;;;;5006617;28;20058;-77
2023/07/17 04:15:01;;;;;;;10.57;8.85;;;25.80;99.90;;;;;;5002588;28;20069;-77
2023/07/17 04:17:26;;;;;;;13.10;8.65;;;25.70;99.90;;;;;;5008926;28;20065;-77
2023/07/17 04:19:52;;;;;;;12.75;8.77;;;25.70;99.90;;;;;;5004449;28;20405;-77
2023/07/17 04:22:17;;;;;;;10.68;9.38;;;25.70;99.90;;;;;;5004220;28;20037;-77
2023/07/17 04:24:43;;;;;;;11.73;9.40;;;25.70;99.90;;;;;;4998381;28;20017;-76
2023/07/17 04:27:09;;;;;;;13.52;9.18;;;25.80;99.90;;;;;;4998905;28;20038;-77
2023/07/17 04:29:34;;;;;;;16.23;8.88;;;25.80;99.90;;;;;;4998833;28;20052;-77
2023/07/17 04:32:00;;;;;;;13.10;8.93;;;25.80;99.90;;;;;;4998356;28;20069;-76
2023/07/17 04:34:28;;;;;;;15.30;8.98;;;25.70;99.90;;;;;;4997305;28;20386;-76
2023/07/17 04:36:54;;;;;;;28.67;10.20;;;25.80;99.90;;;;;;5001947;28;20080;-77
2023/07/17 04:39:20;;;;;;;16.30;9.85;;;25.80;99.90;;;;;;4999613;28;20022;-77
2023/07/17 04:41:45;;;;;;;16.80;10.25;;;25.80;99.90;;;;;;5005914;28;20079;-76
2023/07/17 04:44:11;;;;;;;17.73;10.40;;;25.70;99.90;;;;;;5007218;28;20045;-76
2023/07/17 04:46:37;;;;;;;11.40;9.98;;;25.70;99.90;;;;;;5008997;28;20029;-76
2023/07/17 04:49:03;;;;;;;18.55;10.02;;;25.80;99.90;;;;;;5003197;28;20037;-76
2023/07/17 04:51:29;;;;;;;18.63;10.10;;;25.80;99.90;;;;;;5002244;28;20057;-77
2023/07/17 04:53:55;;;;;;;22.80;10.10;;;25.90;99.90;;;;;;5002975;28;20025;-77
2023/07/17 04:56:20;;;;;;;16.70;9.55;;;26.00;99.90;;;;;;5008579;28;20026;-77
2023/07/17 04:58:46;;;;;;;11.10;9.20;;;26.00;99.90;;;;;;5001927;28;20103;-77
2023/07/17 05:01:12;;;;;;;14.15;9.57;;;26.10;99.90;;;;;;5002010;28;20026;-76
2023/07/17 05:03:37;;;;;;;14.63;9.65;;;26.10;99.90;;;;;;5001571;28;20045;-77
2023/07/17 05:06:03;;;;;;;20.92;9.80;;;26.10;99.90;;;;;;5002443;28;20109;-76
2023/07/17 05:08:29;;;;;;;14.63;9.20;;;26.10;99.90;;;;;;5003099;28;20037;-77
2023/07/17 05:10:56;;;;;;;16.20;9.30;;;26.10;99.90;;;;;;5003559;28;20673;-76
2023/07/17 05:13:22;;;;;;;10.13;8.60;;;26.10;99.90;;;;;;5003490;28;20061;-76
2023/07/17 05:15:49;;;;;;;17.38;8.63;;;26.20;99.90;;;;;;4999786;28;20396;-77
2023/07/17 05:18:14;;;;;;;11.48;8.82;;;26.20;99.90;;;;;;5004623;28;20026;-76
2023/07/17 05:20:44;;;;;;;12.80;9.75;;;26.20;99.90;;;;;;5006820;28;20371;-77
2023/07/17 05:23:10;;;;;;;11.13;9.13;;;26.20;99.90;;;;;;5001236;28;20022;-76
2023/07/17 05:25:35;;;;;;;10.10;9.02;;;26.20;99.90;;;;;;5002630;28;20109;-77
2023/07/17 05:28:01;;;;;;;12.07;9.05;;;26.30;99.90;;;;;;5004467;28;20058;-77
2023/07/17 05:30:35;;;;;;;10.95;9.27;;;26.30;99.90;;;;;;5006827;28;20101;-77
2023/07/17 05:33:01;;;;;;;10.27;9.32;;;26.40;99.90;;;;;;5003405;28;20379;-76
2023/07/17 05:35:28;;;;;;;9.95;8.95;;;26.30;99.90;;;;;;5006228;28;20026;-77
2023/07/17 05:37:54;;;;;;;11.32;9.18;;;26.40;99.90;;;;;;5005147;28;20023;-77
2023/07/17 05:40:20;;;;;;;17.27;9.07;;;26.50;99.90;;;;;;5004974;28;20075;-76
2023/07/17 05:42:46;;;;;;;15.50;9.68;;;26.50;99.90;;;;;;5005964;28;20030;-77
2023/07/17 05:45:11;;;;;;;15.73;8.90;;;26.50;99.90;;;;;;5004279;28;20504;-77
2023/07/17 05:47:38;;;;;;;12.23;9.05;;;26.60;99.90;;;;;;5006289;28;20085;-76
2023/07/17 05:50:04;;;;;;;13.65;10.10;;;26.60;99.90;;;;;;5005353;28;20448;-77
2023/07/17 05:52:30;;;;;;;16.95;10.00;;;26.60;99.90;;;;;;5001995;28;20022;-77
2023/07/17 05:54:56;;;;;;;15.65;9.40;;;26.70;99.90;;;;;;5005573;28;20104;-77
2023/07/17 05:57:21;;;;;;;14.65;10.18;;;26.70;99.90;;;;;;5003835;28;20086;-77
2023/07/17 05:59:47;;;;;;;14.35;9.75;;;26.80;99.90;;;;;;5004956;28;20053;-77
2023/07/17 06:02:14;;;;;;;17.58;10.00;;;26.80;99.90;;;;;;5003296;28;20117;-77
2023/07/17 06:04:40;;;;;;;10.32;9.15;;;26.80;99.90;;;;;;5005072;28;20030;-77
2023/07/17 06:07:06;;;;;;;13.35;9.77;;;26.80;99.90;;;;;;5001984;28;20196;-76
2023/07/17 06:09:34;;;;;;;16.35;9.60;;;26.90;99.90;;;;;;5003945;28;20033;-76
2023/07/17 06:12:00;;;;;;;18.60;9.45;;;27.00;99.90;;;;;;4999843;28;20026;-76
2023/07/17 06:14:25;;;;;;;13.13;9.98;;;27.00;99.90;;;;;;5004474;28;20026;-77
2023/07/17 06:16:51;;;;;;;16.83;9.15;;;27.00;99.90;;;;;;5000182;28;20077;-77
2023/07/17 06:19:17;;;;;;;13.48;9.50;;;27.10;99.90;;;;;;5006461;28;20393;-77
2023/07/17 06:21:43;;;;;;;16.10;9.43;;;27.10;99.90;;;;;;5010605;28;20065;-77
2023/07/17 06:24:08;;;;;;;11.63;9.82;;;27.20;99.90;;;;;;5003496;28;20031;-77
2023/07/17 06:26:36;;;;;;;16.63;10.45;;;27.20;99.90;;;;;;5011540;28;20121;-76
2023/07/17 06:29:03;;;;;;;14.32;10.30;;;27.30;99.90;;;;;;5010224;28;20075;-77
2023/07/17 06:31:32;;;;;;;14.80;10.15;;;27.30;99.90;;;;;;5002878;28;20022;-77
2023/07/17 06:33:58;;;;;;;18.30;10.68;;;27.30;99.90;;;;;;5003432;28;20050;-77
2023/07/17 06:36:23;;;;;;;12.00;10.18;;;27.30;99.90;;;;;;5008021;28;20056;-75
2023/07/17 06:38:49;;;;;;;17.40;10.90;;;27.30;99.90;;;;;;5001196;28;20022;-76
2023/07/17 06:41:16;;;;;;;12.15;10.60;;;27.40;99.90;;;;;;5011802;28;20022;-76
2023/07/17 06:43:43;;;;;;;16.98;9.70;;;27.40;99.90;;;;;;5001210;28;20026;-77
2023/07/17 06:46:09;;;;;;;21.35;10.27;;;27.40;99.90;;;;;;5007586;28;20069;-77
2023/07/17 06:48:34;;;;;;;14.65;9.43;;;27.50;99.90;;;;;;5011561;28;20568;-77
2023/07/17 06:51:00;;;;;;;16.83;10.88;;;27.50;99.90;;;;;;5007240;28;20038;-76
2023/07/17 06:53:26;;;;;;;11.43;10.18;;;27.50;99.90;;;;;;5006710;28;20049;-77
2023/07/17 06:55:56;;;;;;;14.07;9.35;;;27.50;99.90;;;;;;4998817;28;20058;-77
2023/07/17 06:58:22;;;;;;;21.90;10.20;;;27.50;99.90;;;;;;5004920;28;20031;-83
2023/07/17 07:00:53;;;;;;;18.33;10.00;;;27.60;99.90;;;;;;5006866;28;20125;-84
2023/07/17 07:03:19;;;;;;;20.13;10.23;;;27.70;99.90;;;;;;5012978;28;20041;-84
2023/07/17 07:05:56;;;;;;;15.45;11.10;;;27.70;99.90;;;;;;5007128;28;20027;-83
2023/07/17 07:08:24;;;;;;;18.08;11.43;;;27.80;99.90;;;;;;5003727;28;20125;-83
2023/07/17 07:10:52;;;;;;;19.77;10.05;;;27.80;99.90;;;;;;5012018;28;20494;-83
2023/07/17 07:13:18;;;;;;;17.77;11.27;;;27.80;99.90;;;;;;5013369;28;20030;-84
2023/07/17 07:15:44;;;;;;;18.73;10.93;;;27.80;99.90;;;;;;5013489;28;20041;-83
2023/07/17 07:18:10;;;;;;;12.13;10.52;;;27.90;99.90;;;;;;5007476;28;20364;-83
2023/07/17 07:20:35;;;;;;;16.63;10.70;;;27.90;99.90;;;;;;5013300;28;20076;-83
2023/07/17 07:23:01;;;;;;;14.95;10.98;;;28.00;99.90;;;;;;5013165;28;20032;-83
2023/07/17 07:25:27;;;;;;;17.63;10.75;;;28.00;99.90;;;;;;5006486;28;20026;-84
2023/07/17 07:27:52;;;;;;;17.75;10.63;;;28.00;99.90;;;;;;4993465;28;20037;-83
2023/07/17 07:30:18;;;;;;;13.82;9.77;;;28.00;99.90;;;;;;5011165;28;20051;-84
2023/07/17 07:32:44;;;;;;;17.73;10.55;;;28.10;99.90;;;;;;5012869;28;20488;-83
2023/07/17 07:35:10;;;;;;;15.45;10.15;;;28.10;99.90;;;;;;5008709;28;20023;-76
2023/07/17 07:37:37;;;;;;;14.30;10.55;;;28.20;99.90;;;;;;5003829;28;20030;-77
2023/07/17 07:40:03;;;;;;;19.33;11.10;;;28.20;99.90;;;;;;5002077;28;20148;-76
2023/07/17 07:42:29;;;;;;;11.75;9.90;;;28.30;99.90;;;;;;5004984;28;20029;-77
2023/07/17 07:44:55;;;;;;;17.55;9.45;;;28.30;99.90;;;;;;5001120;28;20072;-77
2023/07/17 07:47:20;;;;;;;17.17;9.77;;;28.30;99.90;;;;;;5009586;28;20034;-77
2023/07/17 07:49:46;;;;;;;18.15;9.98;;;28.30;99.90;;;;;;5009288;28;20488;-76
2023/07/17 07:52:12;;;;;;;11.43;9.77;;;28.30;99.90;;;;;;4998409;28;20033;-76
2023/07/17 07:54:37;;;;;;;20.77;10.48;;;28.40;99.90;;;;;;4999306;28;20049;-77
2023/07/17 07:57:03;;;;;;;19.85;9.68;;;28.40;99.90;;;;;;5006610;28;20026;-77
2023/07/17 07:59:29;;;;;;;14.95;9.40;;;28.40;99.90;;;;;;4999852;28;20397;-76
2023/07/17 08:01:55;;;;;;;11.88;10.10;;;28.40;99.90;;;;;;5001543;28;20082;-76
2023/07/17 08:04:20;;;;;;;15.73;10.68;;;28.50;99.90;;;;;;5001877;28;20100;-77
2023/07/17 08:06:46;;;;;;;14.40;10.27;;;28.50;99.90;;;;;;4997689;28;20034;-76
2023/07/17 08:09:12;;;;;;;12.55;10.00;;;28.50;99.90;;;;;;5000785;28;20022;-77
2023/07/17 08:11:39;;;;;;;72.32;41.17;;;28.60;99.90;;;;;;5005059;28;20512;-77
2023/07/17 08:14:05;;;;;;;103.95;58.00;;;28.50;99.90;;;;;;4997612;28;20019;-76
2023/07/17 08:16:31;;;;;;;26.52;15.70;;;28.50;99.90;;;;;;5004803;28;20113;-76
2023/07/17 08:18:56;;;;;;;13.25;10.15;;;28.60;99.90;;;;;;5007424;28;20022;-77
2023/07/17 08:21:22;;;;;;;14.80;9.70;;;28.70;99.90;;;;;;5002656;28;20030;-76
2023/07/17 08:23:48;;;;;;;16.95;9.63;;;28.80;99.90;;;;;;5002193;28;20386;-77
2023/07/17 08:26:13;;;;;;;15.70;9.30;;;28.90;99.90;;;;;;5000371;28;20142;-77
2023/07/17 08:28:39;;;;;;;14.40;8.43;;;29.00;99.90;;;;;;4999970;28;20018;-74
2023/07/17 08:31:04;;;;;;;10.48;8.98;;;29.10;99.90;;;;;;5002817;28;20477;-77
2023/07/17 08:33:30;;;;;;;10.88;8.40;;;29.10;99.90;;;;;;5000979;28;20492;-76
2023/07/17 08:35:56;;;;;;;10.60;8.20;;;29.20;99.90;;;;;;5002134;28;20041;-77
2023/07/17 08:38:21;;;;;;;12.55;8.15;;;29.30;99.90;;;;;;4997103;28;20486;-77
2023/07/17 08:40:55;;;;;;;14.38;8.70;;;29.30;99.90;;;;;;5001653;28;20058;-76
2023/07/17 08:43:22;;;;;;;9.85;8.48;;;29.40;99.90;;;;;;4999993;28;20033;-76
2023/07/17 08:45:50;;;;;;;13.68;8.45;;;29.40;99.90;;;;;;4998310;28;20022;-77
2023/07/17 08:48:16;;;;;;;15.00;8.95;;;29.50;99.90;;;;;;5007320;28;20021;-76
2023/07/17 08:50:42;;;;;;;14.13;8.95;;;29.50;99.90;;;;;;5004040;28;20034;-77
2023/07/17 08:53:10;;;;;;;13.73;8.80;;;29.60;99.90;;;;;;5002512;28;20050;-76
2023/07/17 08:55:36;;;;;;;13.82;8.77;;;29.50;99.90;;;;;;5003182;28;20034;-76
2023/07/17 08:58:04;;;;;;;11.90;8.85;;;29.50;99.90;;;;;;5000882;28;20029;-77
2023/07/17 09:00:31;;;;;;;14.23;9.55;;;29.50;99.90;;;;;;5001422;28;20050;-77
2023/07/17 09:02:57;;;;;;;14.75;9.13;;;29.60;99.90;;;;;;5000682;28;20030;-76
2023/07/17 09:05:23;;;;;;;14.88;9.75;;;29.70;99.90;;;;;;5003638;28;20148;-77
2023/07/17 09:07:49;;;;;;;16.88;9.73;;;29.80;99.90;;;;;;5003746;28;20029;-77
2023/07/17 09:10:23;;;;;;;17.23;9.88;;;29.70;99.90;;;;;;4998284;28;20508;-77
2023/07/17 09:12:57;;;;;;;17.85;10.73;;;29.70;99.90;;;;;;5006068;28;20026;-77
2023/07/17 09:15:24;;;;;;;12.98;10.45;;;29.80;99.90;;;;;;5002202;28;20093;-77
2023/07/17 09:17:50;;;;;;;16.77;10.43;;;29.90;99.90;;;;;;4999698;28;20077;-77
2023/07/17 09:20:17;;;;;;;10.98;9.80;;;29.90;99.90;;;;;;5003811;28;20382;-76
2023/07/17 09:22:44;;;;;;;17.30;11.35;;;30.00;99.90;;;;;;4999745;28;20129;-77
2023/07/17 09:25:11;;;;;;;17.85;10.00;;;30.00;99.90;;;;;;5002788;28;20033;-76
2023/07/17 09:27:45;;;;;;;17.48;10.57;;;30.00;99.90;;;;;;5000526;28;20030;-77
2023/07/17 09:30:12;;;;;;;14.05;10.40;;;30.10;99.90;;;;;;5000812;28;20113;-76
2023/07/17 09:32:38;;;;;;;12.73;10.32;;;30.20;99.90;;;;;;5002788;28;20014;-77
2023/07/17 09:35:05;;;;;;;14.82;9.55;;;30.20;99.90;;;;;;4999615;28;20109;-77
2023/07/17 09:37:32;;;;;;;17.23;10.35;;;30.10;99.90;;;;;;5003314;28;20015;-77
2023/07/17 09:40:21;;;;;;;14.73;9.43;;;30.20;99.90;;;;;;5002349;28;20045;-77
2023/07/17 09:42:55;;;;;;;15.75;10.57;;;30.30;99.90;;;;;;5002218;28;20080;-77
2023/07/17 09:45:22;;;;;;;17.38;10.05;;;30.30;99.90;;;;;;5001296;28;20026;-77
2023/07/17 09:47:51;;;;;;;13.90;9.52;;;30.30;99.90;;;;;;5001813;28;20037;-77
2023/07/17 09:50:19;;;;;;;13.57;9.18;;;30.40;99.90;;;;;;5006408;28;20034;-76
2023/07/17 09:52:45;;;;;;;17.27;9.43;;;30.40;99.90;;;;;;5002871;28;20030;-76
2023/07/17 09:55:11;;;;;;;14.18;9.43;;;30.40;99.90;;;;;;4999654;28;20018;-77
2023/07/17 09:57:38;;;;;;;17.83;11.55;;;30.50;99.90;;;;;;5000965;28;20022;-77
2023/07/17 10:00:14;;;;;;;13.18;9.63;;;30.50;99.90;;;;;;4999314;28;20053;-76
2023/07/17 10:02:53;;;;;;;19.90;9.60;;;30.50;99.90;;;;;;4998839;28;20041;-77
2023/07/17 10:05:20;;;;;;;19.08;12.10;;;30.50;99.90;;;;;;5005706;28;20124;-77
2023/07/17 10:07:47;;;;;;;19.42;11.63;;;30.60;99.90;;;;;;5000946;28;20063;-76
2023/07/17 10:10:13;;;;;;;18.48;11.88;;;30.60;99.90;;;;;;5001574;28;20142;-77
2023/07/17 10:12:44;;;;;;;11.13;8.65;;;30.50;99.90;;;;;;5000299;28;20107;-77
2023/07/17 10:15:10;;;;;;;13.07;7.72;;;30.50;99.90;;;;;;5006460;28;20026;-77
2023/07/17 10:17:36;;;;;;;18.50;9.63;;;30.60;99.90;;;;;;5005881;28;20045;-77
2023/07/17 10:20:10;;;;;;;16.77;9.00;;;30.70;99.90;;;;;;5008043;28;20543;-77
2023/07/17 10:22:43;;;;;;;19.48;8.10;;;30.80;99.90;;;;;;5012290;28;20433;-77
2023/07/17 10:25:29;;;;;;;15.10;7.25;;;30.90;99.90;;;;;;5001156;28;20022;-77
2023/07/17 10:28:03;;;;;;;14.60;8.23;;;30.80;99.90;;;;;;5002860;28;20049;-77
2023/07/17 10:30:38;;;;;;;11.68;6.70;;;31.00;99.90;;;;;;5002953;28;20066;-77
2023/07/17 10:33:12;;;;;;;18.80;8.30;;;31.00;99.90;;;;;;5003962;28;20489;-77
2023/07/17 10:35:56;;;;;;;23.67;7.00;;;31.00;99.90;;;;;;5006158;28;20104;-77
2023/07/17 10:38:30;;;;;;;15.18;7.53;;;31.10;99.90;;;;;;5004686;28;20478;-77
2023/07/17 10:41:04;;;;;;;16.67;7.03;;;31.10;99.90;;;;;;5004419;28;20488;-77
2023/07/17 10:43:30;;;;;;;17.83;7.03;;;31.10;99.90;;;;;;5003945;28;20058;-76
2023/07/17 10:45:57;;;;;;;15.07;6.93;;;31.20;99.90;;;;;;5003832;28;20037;-77
2023/07/17 10:48:33;;;;;;;15.07;5.72;;;31.10;99.90;;;;;;5006733;28;20449;-77
2023/07/17 10:50:58;;;;;;;9.32;6.50;;;31.30;99.90;;;;;;5005539;28;20033;-77
2023/07/17 10:53:24;;;;;;;14.18;6.57;;;31.30;99.90;;;;;;5002638;28;20037;-76
2023/07/17 10:55:50;;;;;;;14.38;6.65;;;31.50;99.90;;;;;;5004701;28;20224;-76
2023/07/17 10:58:20;;;;;;;15.07;7.07;;;31.50;99.90;;;;;;5001782;28;20022;-77
2023/07/17 11:00:46;;;;;;;10.38;6.05;;;31.60;99.90;;;;;;5002970;28;20068;-77
2023/07/17 11:03:17;;;;;;;11.60;6.45;;;31.80;99.90;;;;;;5002348;28;20022;-77
2023/07/17 11:05:45;;;;;;;12.15;5.85;;;31.80;99.90;;;;;;5002485;28;20065;-77
2023/07/17 11:08:14;;;;;;;13.43;6.50;;;31.80;99.90;;;;;;5004485;28;20445;-76
2023/07/17 11:10:43;;;;;;;10.18;5.75;;;31.90;99.90;;;;;;5006498;28;20077;-76
2023/07/17 11:13:09;;;;;;;15.93;6.13;;;32.00;99.90;;;;;;5002896;28;20025;-77
2023/07/17 11:15:36;;;;;;;13.48;5.50;;;32.00;99.90;;;;;;5003210;28;20117;-76
2023/07/17 11:18:04;;;;;;;19.52;5.57;;;32.20;99.90;;;;;;5010424;28;20590;-77
2023/07/17 11:20:31;;;;;;;11.45;5.90;;;32.20;99.90;;;;;;5004364;28;20036;-77
2023/07/17 11:22:57;;;;;;;11.13;5.35;;;32.20;99.90;;;;;;5004617;28;20401;-74
2023/07/17 11:25:32;;;;;;;10.02;5.53;;;32.20;99.90;;;;;;4999387;28;20072;-73
2023/07/17 11:27:59;;;;;;;19.23;6.45;;;32.30;99.90;;;;;;5003949;28;20052;-74
2023/07/17 11:30:30;;;;;;;7.82;5.25;;;32.30;99.10;;;;;;5001477;28;20426;-74
2023/07/17 11:32:58;;;;;;;16.25;5.60;;;32.40;99.70;;;;;;5001766;28;20022;-74
2023/07/17 11:35:46;;;;;;;10.85;5.78;;;32.50;99.90;;;;;;5003662;28;20087;-74
2023/07/17 11:38:18;;;;;;;13.60;5.40;;;32.50;98.40;;;;;;5001782;28;20448;-74
2023/07/17 11:40:58;;;;;;;15.65;5.68;;;32.60;98.30;;;;;;5002566;28;20026;-74
2023/07/17 11:43:35;;;;;;;16.13;5.88;;;32.70;98.30;;;;;;5001320;28;20030;-74
2023/07/17 11:46:02;;;;;;;15.30;5.63;;;32.70;97.50;;;;;;5001164;28;20034;-74
2023/07/17 11:48:37;;;;;;;12.43;5.50;;;32.70;97.00;;;;;;5006372;28;20072;-74
2023/07/17 11:51:04;;;;;;;16.27;6.35;;;32.80;96.70;;;;;;5004401;28;20032;-73
2023/07/17 11:53:31;;;;;;;13.23;5.63;;;32.90;97.80;;;;;;5001798;28;20258;-74
2023/07/17 11:55:59;;;;;;;14.32;6.13;;;32.90;96.80;;;;;;5009453;28;20030;-74
2023/07/17 11:58:31;;;;;;;14.52;6.25;;;33.00;98.80;;;;;;5003035;28;20036;-74
2023/07/17 12:00:57;;;;;;;15.38;5.88;;;33.10;99.50;;;;;;5000921;28;20053;-73
2023/07/17 12:03:23;;;;;;;15.45;5.55;;;33.10;98.60;;;;;;5002962;28;20117;-73
2023/07/17 12:05:49;;;;;;;14.27;6.03;;;33.30;99.10;;;;;;5000974;28;20062;-73
2023/07/17 12:08:16;;;;;;;15.15;5.82;;;33.40;98.40;;;;;;5003303;28;20061;-73
2023/07/17 12:10:42;;;;;;;9.35;5.68;;;33.50;98.80;;;;;;5001662;28;20030;-74
2023/07/17 12:13:08;;;;;;;11.25;5.60;;;33.50;98.90;;;;;;5004537;28;20026;-73
2023/07/17 12:15:34;;;;;;;14.60;6.47;;;33.60;97.60;;;;;;5002896;28;20057;-73
2023/07/17 12:18:00;;;;;;;9.48;5.85;;;33.60;97.80;;;;;;5004301;28;20034;-74
2023/07/17 12:20:29;;;;;;;11.73;6.30;;;33.60;97.30;;;;;;5004816;28;20033;-74
2023/07/17 12:22:56;;;;;;;19.15;6.38;;;33.60;97.80;;;;;;5004018;28;20477;-74
2023/07/17 12:25:23;;;;;;;11.32;5.53;;;33.80;98.80;;;;;;4999411;28;20033;-73
2023/07/17 12:27:48;;;;;;;20.42;6.05;;;33.90;98.60;;;;;;5003202;28;20489;-74
2023/07/17 12:30:15;;;;;;;13.02;5.00;;;34.00;98.20;;;;;;5001371;28;20076;-74
2023/07/17 12:32:41;;;;;;;12.90;5.90;;;34.20;97.60;;;;;;5004281;28;20022;-74
2023/07/17 12:35:08;;;;;;;14.07;5.63;;;34.30;96.40;;;;;;5004075;28;20124;-74